sensor_id;sensor_type;location;lat;lon;timestamp;pressure;altitude;pressure_sealevel;temperature;humidity
69027;BME280;56080;47.594;19.116;2022-07-06T00:01:54;100128;;;19.15;77.61
69027;BME280;56080;47.594;19.116;2022-07-06T00:06:54;100132;;;19.22;77.52
69027;BME280;56080;47.594;19.116;2022-07-06T00:11:54;100135;;;19.31;76.88
69027;BME280;56080;47.594;19.116;2022-07-06T00:16:54;100124;;;19.23;77.37
69027;BME280;56080;47.594;19.116;2022-07-06T00:21:54;100125;;;19.11;77.50
69027;BME280;56080;47.594;19.116;2022-07-06T00:26:54;100124;;;19.12;77.39
69027;BME280;56080;47.594;19.116;2022-07-06T00:31:54;100125;;;18.99;78.00
69027;BME280;56080;47.594;19.116;2022-07-06T00:36:55;100131;;;19.00;77.77
69027;BME280;56080;47.594;19.116;2022-07-06T00:41:55;100136;;;18.93;78.23
69027;BME280;56080;47.594;19.116;2022-07-06T00:46:54;100135;;;19.05;77.86
69027;BME280;56080;47.594;19.116;2022-07-06T00:51:54;100134;;;19.08;77.48
69027;BME280;56080;47.594;19.116;2022-07-06T00:56:54;100126;;;19.13;76.99
69027;BME280;56080;47.594;19.116;2022-07-06T01:01:55;100121;;;19.03;77.16
69027;BME280;56080;47.594;19.116;2022-07-06T01:06:54;100118;;;18.98;77.45
69027;BME280;56080;47.594;19.116;2022-07-06T01:11:54;100114;;;18.79;77.87
69027;BME280;56080;47.594;19.116;2022-07-06T01:16:55;100116;;;18.78;78.08
69027;BME280;56080;47.594;19.116;2022-07-06T01:21:54;100111;;;18.75;78.15
69027;BME280;56080;47.594;19.116;2022-07-06T01:26:54;100113;;;18.76;78.22
69027;BME280;56080;47.594;19.116;2022-07-06T01:31:55;100112;;;18.71;78.27
69027;BME280;56080;47.594;19.116;2022-07-06T01:36:54;100104;;;18.74;78.20
69027;BME280;56080;47.594;19.116;2022-07-06T01:41:54;100104;;;18.76;78.27
69027;BME280;56080;47.594;19.116;2022-07-06T01:46:54;100106;;;18.78;78.08
69027;BME280;56080;47.594;19.116;2022-07-06T01:51:54;100110;;;18.80;78.00
69027;BME280;56080;47.594;19.116;2022-07-06T01:56:54;100116;;;18.83;78.02
69027;BME280;56080;47.594;19.116;2022-07-06T02:01:54;100120;;;18.91;77.55
69027;BME280;56080;47.594;19.116;2022-07-06T02:06:54;100113;;;18.71;78.01
69027;BME280;56080;47.594;19.116;2022-07-06T02:11:54;100109;;;18.81;77.21
69027;BME280;56080;47.594;19.116;2022-07-06T02:16:55;100115;;;18.92;76.51
69027;BME280;56080;47.594;19.116;2022-07-06T02:21:54;100118;;;18.85;76.31
69027;BME280;56080;47.594;19.116;2022-07-06T02:26:54;100125;;;18.94;75.99
69027;BME280;56080;47.594;19.116;2022-07-06T02:36:54;100129;;;18.87;75.97
69027;BME280;56080;47.594;19.116;2022-07-06T02:41:54;100138;;;18.92;75.79
69027;BME280;56080;47.594;19.116;2022-07-06T02:46:54;100147;;;19.04;75.13
69027;BME280;56080;47.594;19.116;2022-07-06T02:51:54;100164;;;18.99;75.88
69027;BME280;56080;47.594;19.116;2022-07-06T02:56:54;100177;;;18.90;76.13
69027;BME280;56080;47.594;19.116;2022-07-06T03:01:54;100183;;;18.81;76.40
69027;BME280;56080;47.594;19.116;2022-07-06T03:06:55;100190;;;18.87;76.21
69027;BME280;56080;47.594;19.116;2022-07-06T03:11:54;100196;;;19.03;75.95
69027;BME280;56080;47.594;19.116;2022-07-06T03:16:55;100200;;;18.54;77.50
69027;BME280;56080;47.594;19.116;2022-07-06T03:21:54;100200;;;18.46;77.86
69027;BME280;56080;47.594;19.116;2022-07-06T03:26:54;100196;;;18.69;77.13
69027;BME280;56080;47.594;19.116;2022-07-06T03:31:55;100208;;;18.76;76.78
69027;BME280;56080;47.594;19.116;2022-07-06T03:36:54;100207;;;18.88;76.69
69027;BME280;56080;47.594;19.116;2022-07-06T03:41:54;100207;;;18.92;76.68
69027;BME280;56080;47.594;19.116;2022-07-06T03:46:55;100210;;;19.08;75.55
69027;BME280;56080;47.594;19.116;2022-07-06T03:51:54;100210;;;19.15;75.40
69027;BME280;56080;47.594;19.116;2022-07-06T03:56:54;100215;;;19.21;75.11
69027;BME280;56080;47.594;19.116;2022-07-06T04:01:55;100227;;;19.15;75.65
69027;BME280;56080;47.594;19.116;2022-07-06T04:06:54;100231;;;19.03;76.07
69027;BME280;56080;47.594;19.116;2022-07-06T04:11:54;100220;;;19.14;75.71
69027;BME280;56080;47.594;19.116;2022-07-06T04:16:55;100217;;;19.20;75.61
69027;BME280;56080;47.594;19.116;2022-07-06T04:21:54;100211;;;19.31;75.21
69027;BME280;56080;47.594;19.116;2022-07-06T04:26:54;100213;;;19.28;74.93
69027;BME280;56080;47.594;19.116;2022-07-06T04:31:55;100204;;;19.32;75.08
69027;BME280;56080;47.594;19.116;2022-07-06T04:36:55;100197;;;19.41;74.46
69027;BME280;56080;47.594;19.116;2022-07-06T04:41:54;100207;;;19.59;74.24
69027;BME280;56080;47.594;19.116;2022-07-06T04:46:55;100199;;;19.90;73.13
69027;BME280;56080;47.594;19.116;2022-07-06T04:51:54;100204;;;20.86;68.91
69027;BME280;56080;47.594;19.116;2022-07-06T04:56:55;100210;;;22.46;63.62
69027;BME280;56080;47.594;19.116;2022-07-06T05:01:55;100226;;;23.98;58.93
69027;BME280;56080;47.594;19.116;2022-07-06T05:06:54;100232;;;25.20;53.97
69027;BME280;56080;47.594;19.116;2022-07-06T05:11:55;100237;;;25.32;51.42
69027;BME280;56080;47.594;19.116;2022-07-06T05:16:55;100236;;;26.80;48.78
69027;BME280;56080;47.594;19.116;2022-07-06T05:21:55;100240;;;26.26;49.25
69027;BME280;56080;47.594;19.116;2022-07-06T05:26:54;100243;;;26.78;48.67
69027;BME280;56080;47.594;19.116;2022-07-06T05:31:54;100250;;;26.73;48.78
69027;BME280;56080;47.594;19.116;2022-07-06T05:36:55;100242;;;27.01;47.16
69027;BME280;56080;47.594;19.116;2022-07-06T05:41:56;100250;;;26.96;47.13
69027;BME280;56080;47.594;19.116;2022-07-06T05:47:04;100261;;;27.40;46.81
69027;BME280;56080;47.594;19.116;2022-07-06T05:51:54;100267;;;28.56;44.34
69027;BME280;56080;47.594;19.116;2022-07-06T05:56:54;100263;;;27.95;45.13
69027;BME280;56080;47.594;19.116;2022-07-06T06:01:55;100266;;;28.76;42.18
69027;BME280;56080;47.594;19.116;2022-07-06T06:06:55;100271;;;28.35;42.97
69027;BME280;56080;47.594;19.116;2022-07-06T06:11:54;100276;;;29.14;41.71
69027;BME280;56080;47.594;19.116;2022-07-06T06:16:55;100276;;;29.31;41.68
69027;BME280;56080;47.594;19.116;2022-07-06T06:21:55;100282;;;29.94;40.42
69027;BME280;56080;47.594;19.116;2022-07-06T06:26:55;100282;;;30.16;39.03
69027;BME280;56080;47.594;19.116;2022-07-06T06:31:55;100272;;;29.36;40.43
69027;BME280;56080;47.594;19.116;2022-07-06T06:36:54;100267;;;29.40;41.39
69027;BME280;56080;47.594;19.116;2022-07-06T06:41:54;100273;;;29.48;41.38
69027;BME280;56080;47.594;19.116;2022-07-06T06:46:55;100273;;;30.53;41.38
69027;BME280;56080;47.594;19.116;2022-07-06T06:52:04;100295;;;30.25;39.00
69027;BME280;56080;47.594;19.116;2022-07-06T06:56:54;100290;;;32.36;35.48
69027;BME280;56080;47.594;19.116;2022-07-06T07:01:57;100306;;;30.82;36.73
69027;BME280;56080;47.594;19.116;2022-07-06T07:06:55;100307;;;32.27;34.46
69027;BME280;56080;47.594;19.116;2022-07-06T07:11:55;100306;;;30.94;36.28
69027;BME280;56080;47.594;19.116;2022-07-06T07:16:55;100301;;;31.37;36.10
69027;BME280;56080;47.594;19.116;2022-07-06T07:21:54;100295;;;32.31;34.32
69027;BME280;56080;47.594;19.116;2022-07-06T07:26:55;100298;;;31.98;34.93
69027;BME280;56080;47.594;19.116;2022-07-06T07:31:55;100296;;;31.10;36.59
69027;BME280;56080;47.594;19.116;2022-07-06T07:36:54;100295;;;28.99;39.56
69027;BME280;56080;47.594;19.116;2022-07-06T07:41:55;100304;;;31.58;36.48
69027;BME280;56080;47.594;19.116;2022-07-06T07:46:55;100304;;;31.08;36.05
69027;BME280;56080;47.594;19.116;2022-07-06T07:51:55;100303;;;32.51;34.29
69027;BME280;56080;47.594;19.116;2022-07-06T07:56:55;100306;;;32.13;35.12
69027;BME280;56080;47.594;19.116;2022-07-06T08:01:55;100315;;;31.39;35.53
69027;BME280;56080;47.594;19.116;2022-07-06T08:07:02;100314;;;32.95;32.24
69027;BME280;56080;47.594;19.116;2022-07-06T08:11:55;100316;;;33.25;32.04
69027;BME280;56080;47.594;19.116;2022-07-06T08:16:55;100326;;;31.05;35.32
69027;BME280;56080;47.594;19.116;2022-07-06T08:21:55;100320;;;31.42;33.99
69027;BME280;56080;47.594;19.116;2022-07-06T08:26:58;100325;;;31.09;34.59
69027;BME280;56080;47.594;19.116;2022-07-06T08:31:58;100331;;;31.19;33.79
69027;BME280;56080;47.594;19.116;2022-07-06T08:36:55;100330;;;29.32;36.95
69027;BME280;56080;47.594;19.116;2022-07-06T08:41:55;100336;;;28.54;40.03
69027;BME280;56080;47.594;19.116;2022-07-06T08:46:55;100340;;;30.64;35.70
69027;BME280;56080;47.594;19.116;2022-07-06T08:51:55;100339;;;32.39;33.23
69027;BME280;56080;47.594;19.116;2022-07-06T08:56:55;100339;;;30.66;36.02
69027;BME280;56080;47.594;19.116;2022-07-06T09:01:55;100335;;;29.05;38.36
69027;BME280;56080;47.594;19.116;2022-07-06T09:06:55;100329;;;30.15;36.79
69027;BME280;56080;47.594;19.116;2022-07-06T09:11:55;100329;;;28.82;38.87
69027;BME280;56080;47.594;19.116;2022-07-06T09:17:03;100326;;;29.02;39.20
69027;BME280;56080;47.594;19.116;2022-07-06T09:21:55;100323;;;29.96;36.70
69027;BME280;56080;47.594;19.116;2022-07-06T09:26:55;100314;;;28.36;39.91
69027;BME280;56080;47.594;19.116;2022-07-06T09:31:56;100320;;;28.99;38.62
69027;BME280;56080;47.594;19.116;2022-07-06T09:36:55;100309;;;28.67;38.33
69027;BME280;56080;47.594;19.116;2022-07-06T09:41:56;100314;;;28.25;39.31
69027;BME280;56080;47.594;19.116;2022-07-06T09:46:56;100313;;;28.64;38.96
69027;BME280;56080;47.594;19.116;2022-07-06T09:51:56;100314;;;29.03;37.51
69027;BME280;56080;47.594;19.116;2022-07-06T09:56:55;100323;;;28.53;38.09
69027;BME280;56080;47.594;19.116;2022-07-06T10:01:56;100319;;;28.48;37.99
69027;BME280;56080;47.594;19.116;2022-07-06T10:06:56;100319;;;28.24;37.84
69027;BME280;56080;47.594;19.116;2022-07-06T10:11:56;100315;;;27.64;39.58
69027;BME280;56080;47.594;19.116;2022-07-06T10:16:56;100317;;;28.05;39.44
69027;BME280;56080;47.594;19.116;2022-07-06T10:21:56;100310;;;27.96;37.26
69027;BME280;56080;47.594;19.116;2022-07-06T10:26:55;100307;;;28.14;37.05
69027;BME280;56080;47.594;19.116;2022-07-06T10:31:55;100299;;;28.60;36.21
69027;BME280;56080;47.594;19.116;2022-07-06T10:36:55;100301;;;27.68;37.22
69027;BME280;56080;47.594;19.116;2022-07-06T10:41:55;100304;;;27.95;36.88
69027;BME280;56080;47.594;19.116;2022-07-06T10:46:56;100306;;;28.24;36.82
69027;BME280;56080;47.594;19.116;2022-07-06T10:51:56;100307;;;28.32;36.14
69027;BME280;56080;47.594;19.116;2022-07-06T10:56:55;100310;;;28.20;35.28
69027;BME280;56080;47.594;19.116;2022-07-06T11:06:55;100310;;;27.76;35.72
69027;BME280;56080;47.594;19.116;2022-07-06T11:11:55;100306;;;28.04;34.51
69027;BME280;56080;47.594;19.116;2022-07-06T11:16:59;100307;;;27.75;34.66
69027;BME280;56080;47.594;19.116;2022-07-06T11:22:04;100302;;;28.06;34.02
69027;BME280;56080;47.594;19.116;2022-07-06T11:26:55;100303;;;28.23;33.85
69027;BME280;56080;47.594;19.116;2022-07-06T11:31:56;100302;;;28.14;33.46
69027;BME280;56080;47.594;19.116;2022-07-06T11:36:57;100300;;;28.22;32.90
69027;BME280;56080;47.594;19.116;2022-07-06T11:41:56;100305;;;28.18;32.17
69027;BME280;56080;47.594;19.116;2022-07-06T11:46:57;100297;;;28.41;32.68
69027;BME280;56080;47.594;19.116;2022-07-06T11:51:55;100299;;;28.19;32.34
69027;BME280;56080;47.594;19.116;2022-07-06T11:56:56;100299;;;28.33;31.97
69027;BME280;56080;47.594;19.116;2022-07-06T12:02:11;100296;;;28.55;31.34
69027;BME280;56080;47.594;19.116;2022-07-06T12:06:55;100295;;;28.64;30.57
69027;BME280;56080;47.594;19.116;2022-07-06T12:11:55;100293;;;28.44;30.58
69027;BME280;56080;47.594;19.116;2022-07-06T12:16:55;100289;;;28.16;28.35
69027;BME280;56080;47.594;19.116;2022-07-06T12:21:56;100286;;;28.17;28.94
69027;BME280;56080;47.594;19.116;2022-07-06T12:26:55;100291;;;28.28;29.45
69027;BME280;56080;47.594;19.116;2022-07-06T12:31:56;100286;;;28.31;29.77
69027;BME280;56080;47.594;19.116;2022-07-06T12:42:04;100304;;;28.12;29.89
69027;BME280;56080;47.594;19.116;2022-07-06T12:47:10;100298;;;28.07;29.91
69027;BME280;56080;47.594;19.116;2022-07-06T12:56:56;100292;;;27.94;29.63
69027;BME280;56080;47.594;19.116;2022-07-06T13:01:57;100287;;;28.06;29.34
69027;BME280;56080;47.594;19.116;2022-07-06T13:06:55;100293;;;28.07;29.37
69027;BME280;56080;47.594;19.116;2022-07-06T13:11:55;100289;;;28.04;29.33
69027;BME280;56080;47.594;19.116;2022-07-06T13:16:55;100286;;;28.01;29.39
69027;BME280;56080;47.594;19.116;2022-07-06T13:26:55;100283;;;27.88;29.57
69027;BME280;56080;47.594;19.116;2022-07-06T13:31:55;100297;;;27.62;31.02
69027;BME280;56080;47.594;19.116;2022-07-06T13:36:55;100295;;;27.61;31.80
69027;BME280;56080;47.594;19.116;2022-07-06T13:41:55;100300;;;27.50;32.53
69027;BME280;56080;47.594;19.116;2022-07-06T13:46:55;100303;;;27.62;33.32
69027;BME280;56080;47.594;19.116;2022-07-06T13:52:02;100304;;;27.49;32.31
69027;BME280;56080;47.594;19.116;2022-07-06T13:56:55;100309;;;27.44;32.67
69027;BME280;56080;47.594;19.116;2022-07-06T14:01:55;100310;;;27.51;32.13
69027;BME280;56080;47.594;19.116;2022-07-06T14:06:55;100300;;;27.42;32.34
69027;BME280;56080;47.594;19.116;2022-07-06T14:11:55;100305;;;27.37;32.91
69027;BME280;56080;47.594;19.116;2022-07-06T14:16:55;100310;;;27.48;32.81
69027;BME280;56080;47.594;19.116;2022-07-06T14:21:55;100304;;;27.40;32.42
69027;BME280;56080;47.594;19.116;2022-07-06T14:26:55;100308;;;27.36;32.09
69027;BME280;56080;47.594;19.116;2022-07-06T14:31:55;100307;;;29.25;29.43
69027;BME280;56080;47.594;19.116;2022-07-06T14:36:55;100303;;;30.98;26.61
69027;BME280;56080;47.594;19.116;2022-07-06T14:41:55;100300;;;30.84;26.24
69027;BME280;56080;47.594;19.116;2022-07-06T14:46:55;100303;;;30.51;25.92
69027;BME280;56080;47.594;19.116;2022-07-06T14:51:57;100304;;;27.66;29.53
69027;BME280;56080;47.594;19.116;2022-07-06T14:56:55;100313;;;29.45;26.83
69027;BME280;56080;47.594;19.116;2022-07-06T15:01:55;100299;;;30.75;24.63
69027;BME280;56080;47.594;19.116;2022-07-06T15:06:57;100306;;;27.77;28.17
69027;BME280;56080;47.594;19.116;2022-07-06T15:11:55;100308;;;29.12;27.00
69027;BME280;56080;47.594;19.116;2022-07-06T15:16:55;100300;;;30.39;25.12
69027;BME280;56080;47.594;19.116;2022-07-06T15:21:55;100294;;;29.97;25.21
69027;BME280;56080;47.594;19.116;2022-07-06T15:26:55;100292;;;30.63;24.66
69027;BME280;56080;47.594;19.116;2022-07-06T15:31:55;100288;;;28.16;27.41
69027;BME280;56080;47.594;19.116;2022-07-06T15:36:55;100298;;;27.38;28.69
69027;BME280;56080;47.594;19.116;2022-07-06T15:41:55;100296;;;27.15;28.42
69027;BME280;56080;47.594;19.116;2022-07-06T15:46:55;100305;;;27.23;28.82
69027;BME280;56080;47.594;19.116;2022-07-06T15:51:55;100311;;;26.96;29.10
69027;BME280;56080;47.594;19.116;2022-07-06T15:56:55;100313;;;26.80;29.51
69027;BME280;56080;47.594;19.116;2022-07-06T16:01:55;100315;;;26.83;29.59
69027;BME280;56080;47.594;19.116;2022-07-06T16:07:05;100321;;;26.68;30.13
69027;BME280;56080;47.594;19.116;2022-07-06T16:11:55;100327;;;26.70;30.22
69027;BME280;56080;47.594;19.116;2022-07-06T16:16:55;100326;;;26.63;30.22
69027;BME280;56080;47.594;19.116;2022-07-06T16:21:55;100335;;;26.46;30.27
69027;BME280;56080;47.594;19.116;2022-07-06T16:26:55;100331;;;26.59;30.90
69027;BME280;56080;47.594;19.116;2022-07-06T16:31:55;100329;;;26.56;31.31
69027;BME280;56080;47.594;19.116;2022-07-06T16:36:55;100336;;;26.59;31.26
69027;BME280;56080;47.594;19.116;2022-07-06T16:41:55;100333;;;26.53;31.43
69027;BME280;56080;47.594;19.116;2022-07-06T16:46:55;100336;;;26.49;31.23
69027;BME280;56080;47.594;19.116;2022-07-06T16:51:55;100330;;;26.52;31.58
69027;BME280;56080;47.594;19.116;2022-07-06T16:56:55;100332;;;26.31;32.00
69027;BME280;56080;47.594;19.116;2022-07-06T17:01:56;100338;;;26.32;32.49
69027;BME280;56080;47.594;19.116;2022-07-06T17:06:55;100335;;;26.16;32.45
69027;BME280;56080;47.594;19.116;2022-07-06T17:11:55;100348;;;26.07;32.37
69027;BME280;56080;47.594;19.116;2022-07-06T17:16:56;100346;;;26.00;32.34
69027;BME280;56080;47.594;19.116;2022-07-06T17:22:00;100358;;;25.91;32.41
69027;BME280;56080;47.594;19.116;2022-07-06T17:26:55;100365;;;25.84;32.52
69027;BME280;56080;47.594;19.116;2022-07-06T17:31:55;100365;;;25.78;32.09
69027;BME280;56080;47.594;19.116;2022-07-06T17:36:55;100355;;;25.71;31.67
69027;BME280;56080;47.594;19.116;2022-07-06T17:46:55;100362;;;25.63;31.24
69027;BME280;56080;47.594;19.116;2022-07-06T17:51:55;100368;;;25.57;31.04
69027;BME280;56080;47.594;19.116;2022-07-06T17:56:56;100369;;;25.49;30.96
69027;BME280;56080;47.594;19.116;2022-07-06T18:01:55;100378;;;25.50;31.03
69027;BME280;56080;47.594;19.116;2022-07-06T18:06:57;100385;;;25.36;31.28
69027;BME280;56080;47.594;19.116;2022-07-06T18:11:55;100386;;;25.33;31.40
69027;BME280;56080;47.594;19.116;2022-07-06T18:16:56;100389;;;25.31;31.73
69027;BME280;56080;47.594;19.116;2022-07-06T18:21:55;100400;;;25.13;31.72
69027;BME280;56080;47.594;19.116;2022-07-06T18:26:55;100402;;;24.98;32.06
69027;BME280;56080;47.594;19.116;2022-07-06T18:31:56;100404;;;25.10;33.12
69027;BME280;56080;47.594;19.116;2022-07-06T18:36:55;100403;;;25.15;32.49
69027;BME280;56080;47.594;19.116;2022-07-06T18:41:55;100401;;;25.16;32.67
69027;BME280;56080;47.594;19.116;2022-07-06T18:46:55;100399;;;24.95;32.98
69027;BME280;56080;47.594;19.116;2022-07-06T18:51:56;100406;;;24.78;33.55
69027;BME280;56080;47.594;19.116;2022-07-06T18:56:55;100415;;;24.68;33.98
69027;BME280;56080;47.594;19.116;2022-07-06T19:01:56;100414;;;24.56;34.46
69027;BME280;56080;47.594;19.116;2022-07-06T19:06:55;100419;;;24.46;34.91
69027;BME280;56080;47.594;19.116;2022-07-06T19:11:57;100424;;;24.38;35.39
69027;BME280;56080;47.594;19.116;2022-07-06T19:16:55;100424;;;24.11;36.55
69027;BME280;56080;47.594;19.116;2022-07-06T19:21:56;100429;;;24.09;36.15
69027;BME280;56080;47.594;19.116;2022-07-06T19:26:55;100427;;;23.94;36.46
69027;BME280;56080;47.594;19.116;2022-07-06T19:31:56;100430;;;23.75;37.73
69027;BME280;56080;47.594;19.116;2022-07-06T19:36:56;100434;;;23.65;37.77
69027;BME280;56080;47.594;19.116;2022-07-06T19:41:58;100437;;;23.48;38.20
69027;BME280;56080;47.594;19.116;2022-07-06T19:46:55;100443;;;23.32;39.07
69027;BME280;56080;47.594;19.116;2022-07-06T19:51:55;100446;;;23.27;39.33
69027;BME280;56080;47.594;19.116;2022-07-06T19:56:55;100447;;;23.22;38.93
69027;BME280;56080;47.594;19.116;2022-07-06T20:01:55;100446;;;26.38;32.58
69027;BME280;56080;47.594;19.116;2022-07-06T20:06:55;100448;;;23.76;36.91
69027;BME280;56080;47.594;19.116;2022-07-06T20:11:55;100461;;;23.20;38.25
69027;BME280;56080;47.594;19.116;2022-07-06T20:16:55;100465;;;22.81;39.43
69027;BME280;56080;47.594;19.116;2022-07-06T20:21:55;100471;;;22.47;40.59
69027;BME280;56080;47.594;19.116;2022-07-06T20:26:56;100470;;;22.24;41.65
69027;BME280;56080;47.594;19.116;2022-07-06T20:31:56;100469;;;22.38;41.38
69027;BME280;56080;47.594;19.116;2022-07-06T20:36:55;100476;;;22.29;41.88
69027;BME280;56080;47.594;19.116;2022-07-06T20:41:55;100471;;;22.30;41.86
69027;BME280;56080;47.594;19.116;2022-07-06T20:46:55;100473;;;22.21;42.17
69027;BME280;56080;47.594;19.116;2022-07-06T20:51:55;100479;;;21.87;42.96
69027;BME280;56080;47.594;19.116;2022-07-06T20:56:55;100479;;;21.89;43.76
69027;BME280;56080;47.594;19.116;2022-07-06T21:01:55;100475;;;21.73;44.25
69027;BME280;56080;47.594;19.116;2022-07-06T21:11:55;100483;;;21.82;43.21
69027;BME280;56080;47.594;19.116;2022-07-06T21:16:55;100482;;;21.68;44.21
69027;BME280;56080;47.594;19.116;2022-07-06T21:21:55;100490;;;21.64;44.94
69027;BME280;56080;47.594;19.116;2022-07-06T21:26:55;100491;;;21.28;45.97
69027;BME280;56080;47.594;19.116;2022-07-06T21:31:55;100493;;;21.30;45.62
69027;BME280;56080;47.594;19.116;2022-07-06T21:36:55;100493;;;21.06;46.32
69027;BME280;56080;47.594;19.116;2022-07-06T21:41:55;100496;;;21.20;44.83
69027;BME280;56080;47.594;19.116;2022-07-06T21:46:55;100497;;;21.30;45.10
69027;BME280;56080;47.594;19.116;2022-07-06T21:51:55;100495;;;21.15;45.22
69027;BME280;56080;47.594;19.116;2022-07-06T21:56:55;100500;;;21.23;44.65
69027;BME280;56080;47.594;19.116;2022-07-06T22:01:56;100511;;;21.06;44.33
69027;BME280;56080;47.594;19.116;2022-07-06T22:06:55;100510;;;21.32;43.67
69027;BME280;56080;47.594;19.116;2022-07-06T22:11:56;100510;;;21.14;44.67
69027;BME280;56080;47.594;19.116;2022-07-06T22:16:55;100517;;;21.05;45.51
69027;BME280;56080;47.594;19.116;2022-07-06T22:21:55;100512;;;20.86;45.92
69027;BME280;56080;47.594;19.116;2022-07-06T22:26:55;100516;;;20.80;46.26
69027;BME280;56080;47.594;19.116;2022-07-06T22:31:55;100518;;;20.86;45.42
69027;BME280;56080;47.594;19.116;2022-07-06T22:36:55;100522;;;20.91;45.87
69027;BME280;56080;47.594;19.116;2022-07-06T22:41:55;100523;;;20.64;46.97
69027;BME280;56080;47.594;19.116;2022-07-06T22:46:55;100519;;;20.47;47.92
69027;BME280;56080;47.594;19.116;2022-07-06T22:51:55;100520;;;20.51;48.17
69027;BME280;56080;47.594;19.116;2022-07-06T22:56:55;100518;;;20.38;48.61
69027;BME280;56080;47.594;19.116;2022-07-06T23:01:55;100531;;;20.22;49.45
69027;BME280;56080;47.594;19.116;2022-07-06T23:06:55;100525;;;20.19;49.45
69027;BME280;56080;47.594;19.116;2022-07-06T23:11:55;100529;;;19.99;50.57
69027;BME280;56080;47.594;19.116;2022-07-06T23:16:55;100536;;;19.93;50.49
69027;BME280;56080;47.594;19.116;2022-07-06T23:21:55;100533;;;19.81;51.95
69027;BME280;56080;47.594;19.116;2022-07-06T23:26:55;100535;;;19.71;53.30
69027;BME280;56080;47.594;19.116;2022-07-06T23:36:55;100545;;;19.33;54.96
69027;BME280;56080;47.594;19.116;2022-07-06T23:41:57;100545;;;19.30;55.47
69027;BME280;56080;47.594;19.116;2022-07-06T23:46:55;100542;;;19.10;60.07
69027;BME280;56080;47.594;19.116;2022-07-06T23:51:55;100541;;;19.08;59.13
69027;BME280;56080;47.594;19.116;2022-07-06T23:56:55;100542;;;18.92;60.58
